Tropical Cyclones
[Index]
Main Index Home Page Stock Weather Photos Extreme Storms Discussion Storm News and Storm Chasing Reports Tropical Cyclones / Hurricanes / Typhoons Weather Data and Links Wild Fires / Bushfires Weather Observation Techniques Weather Picture Catalogue Tornado Pictures and Reports Stock Video Footage and DVDs for sale
Season 2012-2013 Tropical Cyclone SANDRA Track Map
Season 2012-2013 Summaries: [BoM-AU] [JTWC-AU] [JTWC-SIO] [JTWC-SPAC] [JTWC-SH]
<<- Previous TC | JTWC 2012-2013 Season | Next TC ->>

click for intensity scale information  Lat/long Grid: Show Hide

 Date Labels: Show Hide

Joint Typhoon Warning Centre Cyclone Data

Name: SANDRA

05 Mar 2013 12:00 UTC to 17 Mar 2013 06:00 UTC

    date/time    lat    long     hPa   cat  kts
2013-03-05 12   17.6   151.4    1004         25          
2013-03-05 18   17.2   152.2    1004         25          
2013-03-06 00   16.9   153.0    1004         25          
2013-03-06 06   16.8   153.4    1004         25          
2013-03-06 12   16.8   153.9    1004         25          
2013-03-06 18   16.6   154.4    1004         25          
2013-03-07 00   16.2   154.8    1004         25          
2013-03-07 06   15.8   155.2    1000         30          
2013-03-07 12   15.3   155.6     996         35          
2013-03-07 18   15.0   156.1     993    1    40          
2013-03-08 00   14.7   156.6     989    1    45          
2013-03-08 06   14.7   157.1     985    1    50          
2013-03-08 12   14.9   157.6     978    2    60          
2013-03-08 12   14.9   157.6     978    2    60          
2013-03-08 18   15.2   158.0     974    2    65          
2013-03-08 18   15.2   158.0     974    2    65          
2013-03-09 00   15.3   158.5     974    2    65          
2013-03-09 00   15.3   158.5     974    2    65          
2013-03-09 06   15.4   159.0     974    2    65          
2013-03-09 06   15.4   159.0     974    2    65          
2013-03-09 12   15.5   159.5     974    2    65          
2013-03-09 12   15.5   159.5     974    2    65          
2013-03-09 18   15.7   160.0     967    3    75          
2013-03-09 18   15.7   160.0     967    3    75          
2013-03-09 18   15.7   160.0     967    3    75          
2013-03-10 00   15.9   160.5     959    3    85          
2013-03-10 00   15.9   160.5     959    3    85          
2013-03-10 00   15.9   160.5     959    3    85          
2013-03-10 06   16.2   160.9     952    3    95          
2013-03-10 06   16.2   160.9     952    3    95          
2013-03-10 06   16.2   160.9     952    3    95          
2013-03-10 12   16.5   161.1     944    4   105          
2013-03-10 12   16.5   161.1     944    4   105          
2013-03-10 12   16.5   161.1     944    4   105          
2013-03-10 18   16.8   161.3     941    4   110          
2013-03-10 18   16.8   161.3     941    4   110          
2013-03-10 18   16.8   161.3     941    4   110          
2013-03-11 00   17.1   161.6     941    4   110          
2013-03-11 00   17.1   161.6     941    4   110          
2013-03-11 00   17.1   161.6     941    4   110          
2013-03-11 06   17.7   161.8     944    4   105          
2013-03-11 06   17.7   161.8     944    4   105          
2013-03-11 06   17.7   161.8     944    4   105          
2013-03-11 12   18.3   161.9     948    4   100          
2013-03-11 12   18.3   161.9     948    4   100          
2013-03-11 12   18.3   161.9     948    4   100          
2013-03-11 18   19.0   161.9     956    3    90          
2013-03-11 18   19.0   161.9     956    3    90          
2013-03-11 18   19.0   161.9     956    3    90          
2013-03-12 00   19.9   161.9     963    3    80          
2013-03-12 00   19.9   161.9     963    3    80          
2013-03-12 00   19.9   161.9     963    3    80          
2013-03-12 06   20.8   161.8     963    3    80          
2013-03-12 06   20.8   161.8     963    3    80          
2013-03-12 06   20.8   161.8     963    3    80          
2013-03-12 12   21.6   161.9     967    3    75          
2013-03-12 12   21.6   161.9     967    3    75          
2013-03-12 12   21.6   161.9     967    3    75          
2013-03-12 18   22.4   161.9     978    2    60          
2013-03-12 18   22.4   161.9     978    2    60          
2013-03-13 00   23.4   161.6     985    1    50          
2013-03-13 00   23.4   161.6     985    1    50          
2013-03-13 06   24.6   161.8     993    1    40          
2013-03-13 12   25.9   162.0     989    1    45          
2013-03-13 18   27.3   162.0    1000         30          
2013-03-14 00   29.1   162.1    1004         25          
2013-03-14 06   30.7   161.6    1007         20          
2013-03-14 12   31.3   161.2     993    1    40          
2013-03-14 18   31.8   161.3     996         35          
2013-03-15 00   32.3   161.3    1000         30          
2013-03-15 06   32.8   161.5    1000         30          
2013-03-15 12   33.1   161.8    1000         30          
2013-03-15 18   33.4   162.0    1004         25          
2013-03-16 00   34.1   162.5    1004         25          
2013-03-16 06   34.7   163.4    1004         25          
2013-03-16 12   35.0   165.0    1004         25          
2013-03-16 18   35.1   166.8    1004         25          
2013-03-17 00   35.6   169.6    1004         25          
2013-03-17 06   36.6   171.9    1004         25          
Winds are 1-min average.

Tropical cyclone tracks developed by Michael Bath using data from the Joint Typhoon Warning Centre Best Tracks and Google Maps.


[Australian Severe Weather index] [Copyright Notice] [Email Contacts] [Search This Site] [Privacy Policy]
Document: tropical_cyclone_sandra.htm Updated: 28 June 2017